Time;durP1;ratioP1;P1;durP2;ratioP2;P2;SDS_P1;SDS_P2;PMS_P1;PMS_P2;Temp;Humidity;BMP_temperature;BMP_pressure;BME280_temperature;BME280_humidity;BME280_pressure;Samples;Min_cycle;Max_cycle;Signal;HPM_P1;HPM_P2
2023/10/22 00:02:11;;;;;;;6.07;1.63;;;;;;;;;;5025913;28;20163;-87
2023/10/22 00:04:40;;;;;;;7.43;1.52;;;;;;;;;;5026291;28;20065;-90
2023/10/22 00:07:07;;;;;;;6.85;1.42;;;;;;;;;;5016945;28;20048;-90
2023/10/22 00:09:33;;;;;;;2.92;1.27;;;;;;;;;;5025255;28;20033;-86
2023/10/22 00:12:00;;;;;;;11.90;1.65;;;;;;;;;;5030432;28;20021;-88
2023/10/22 00:14:26;;;;;;;4.90;1.25;;;;;;;;;;5030705;28;20495;-88
2023/10/22 00:16:52;;;;;;;6.80;1.38;;;;;;;;;;5010198;28;20124;-90
2023/10/22 00:19:18;;;;;;;5.85;1.23;;;;;;;;;;5031472;28;20053;-90
2023/10/22 00:21:46;;;;;;;5.30;1.55;;;;;;;;;;5032843;28;20167;-87
2023/10/22 00:24:12;;;;;;;6.03;1.70;;;;;;;;;;5013835;28;20104;-90
2023/10/22 00:26:39;;;;;;;10.98;1.40;;;;;;;;;;5035262;28;20114;-89
2023/10/22 00:29:06;;;;;;;5.03;1.30;;;;;;;;;;5032356;28;20057;-88
2023/10/22 00:31:32;;;;;;;5.03;1.60;;;;;;;;;;5002396;28;20105;-89
2023/10/22 00:33:58;;;;;;;3.63;1.10;;;;;;;;;;5031787;28;20079;-89
2023/10/22 00:36:24;;;;;;;5.18;1.38;;;;;;;;;;5030131;28;20060;-90
2023/10/22 00:38:51;;;;;;;5.18;1.50;;;;;;;;;;5031635;28;20075;-84
2023/10/22 00:41:17;;;;;;;4.75;1.38;;;;;;;;;;5029773;28;20927;-83
2023/10/22 00:43:43;;;;;;;3.88;1.20;;;;;;;;;;5033306;28;20029;-84
2023/10/22 00:46:18;;;;;;;5.35;1.33;;;;;;;;;;4998441;28;20041;-84
2023/10/22 00:48:44;;;;;;;4.30;1.40;;;;;;;;;;5028986;28;20406;-90
2023/10/22 00:51:10;;;;;;;5.05;1.30;;;;;;;;;;5029244;28;20033;-88
2023/10/22 00:53:37;;;;;;;6.57;1.60;;;;;;;;;;5016120;28;20497;-89
2023/10/22 00:56:05;;;;;;;3.80;1.35;;;;;;;;;;5000956;28;20041;-89
2023/10/22 00:58:32;;;;;;;2.85;1.10;;;;;;;;;;5013567;28;20036;-89
2023/10/22 01:00:58;;;;;;;8.32;1.98;;;;;;;;;;5031580;28;20049;-90
2023/10/22 01:03:25;;;;;;;4.28;1.25;;;;;;;;;;5010781;28;20049;-87
2023/10/22 01:05:51;;;;;;;5.93;1.33;;;;;;;;;;5009647;28;20036;-89
2023/10/22 01:08:18;;;;;;;4.95;1.20;;;;;;;;;;5030716;28;20040;-90
2023/10/22 01:10:44;;;;;;;2.67;0.93;;;;;;;;;;5018810;28;20495;-89
2023/10/22 01:13:10;;;;;;;3.30;1.08;;;;;;;;;;5033654;28;20044;-89
2023/10/22 01:15:36;;;;;;;5.70;1.52;;;;;;;;;;5017094;28;20059;-89
2023/10/22 01:18:03;;;;;;;4.68;1.27;;;;;;;;;;5016911;28;20044;-89
2023/10/22 01:20:29;;;;;;;4.38;1.40;;;;;;;;;;5033913;28;20155;-89
2023/10/22 01:22:55;;;;;;;5.45;1.58;;;;;;;;;;5038024;28;20392;-89
2023/10/22 01:25:21;;;;;;;5.70;1.23;;;;;;;;;;5030908;28;20041;-89
2023/10/22 01:27:47;;;;;;;2.58;0.98;;;;;;;;;;5002339;28;20124;-91
2023/10/22 01:30:13;;;;;;;4.75;1.38;;;;;;;;;;5013126;28;20064;-88
2023/10/22 01:32:39;;;;;;;6.65;1.33;;;;;;;;;;5036155;28;20125;-88
2023/10/22 01:35:06;;;;;;;5.05;1.45;;;;;;;;;;5033783;28;20056;-88
2023/10/22 01:37:35;;;;;;;3.53;1.02;;;;;;;;;;5017490;28;20033;-88
2023/10/22 01:40:02;;;;;;;4.13;1.35;;;;;;;;;;5033130;28;20067;-87
2023/10/22 01:42:28;;;;;;;5.18;1.23;;;;;;;;;;5050063;28;20068;-88
2023/10/22 01:44:54;;;;;;;3.95;1.10;;;;;;;;;;5031479;28;20051;-89
2023/10/22 01:47:20;;;;;;;3.92;1.38;;;;;;;;;;5049345;28;20033;-88
2023/10/22 01:49:47;;;;;;;6.53;0.98;;;;;;;;;;5016569;28;20063;-87
2023/10/22 01:52:14;;;;;;;6.20;1.08;;;;;;;;;;5030154;28;20042;-89
2023/10/22 01:54:40;;;;;;;4.55;1.17;;;;;;;;;;5032422;28;20048;-89
2023/10/22 01:57:07;;;;;;;3.85;1.30;;;;;;;;;;5031500;28;20049;-89
2023/10/22 01:59:33;;;;;;;7.35;1.00;;;;;;;;;;5030613;28;20049;-85
2023/10/22 02:01:59;;;;;;;6.30;1.35;;;;;;;;;;5014204;28;20033;-83
2023/10/22 02:04:25;;;;;;;4.05;1.20;;;;;;;;;;5012472;28;20465;-83
2023/10/22 02:06:51;;;;;;;3.45;1.20;;;;;;;;;;5030202;28;20033;-84
2023/10/22 02:09:17;;;;;;;3.80;1.10;;;;;;;;;;5024052;28;20155;-85
2023/10/22 02:11:44;;;;;;;5.05;1.20;;;;;;;;;;5008670;28;20416;-83
2023/10/22 02:14:10;;;;;;;5.57;1.10;;;;;;;;;;5026647;28;20052;-84
2023/10/22 02:16:36;;;;;;;6.03;1.30;;;;;;;;;;5011702;28;20045;-84
2023/10/22 02:19:02;;;;;;;4.38;1.20;;;;;;;;;;5026394;28;20114;-85
2023/10/22 02:21:28;;;;;;;5.30;1.33;;;;;;;;;;4994596;28;20076;-85
2023/10/22 02:23:55;;;;;;;5.63;1.17;;;;;;;;;;5010943;28;20033;-84
2023/10/22 02:26:21;;;;;;;3.60;1.17;;;;;;;;;;5014476;28;20041;-84
2023/10/22 02:28:47;;;;;;;7.82;1.42;;;;;;;;;;5022075;28;20052;-86
2023/10/22 02:31:13;;;;;;;4.57;1.10;;;;;;;;;;5030937;28;20108;-84
2023/10/22 02:33:39;;;;;;;5.03;1.20;;;;;;;;;;5031065;28;20127;-84
2023/10/22 02:36:06;;;;;;;6.45;1.40;;;;;;;;;;5014214;28;20048;-84
2023/10/22 02:38:33;;;;;;;7.97;1.40;;;;;;;;;;5011202;28;20076;-85
2023/10/22 02:40:59;;;;;;;2.75;1.20;;;;;;;;;;5029089;28;20029;-83
2023/10/22 02:43:25;;;;;;;7.60;1.08;;;;;;;;;;4995758;28;20057;-84
2023/10/22 02:45:55;;;;;;;6.72;1.58;;;;;;;;;;4997523;28;21361;-83
2023/10/22 02:48:21;;;;;;;4.47;1.60;;;;;;;;;;5032408;28;20072;-84
2023/10/22 02:50:47;;;;;;;4.38;1.27;;;;;;;;;;5032535;28;20047;-84
2023/10/22 02:53:13;;;;;;;6.65;1.27;;;;;;;;;;5035140;28;20049;-84
2023/10/22 02:55:40;;;;;;;6.13;1.13;;;;;;;;;;5030324;28;20136;-85
2023/10/22 02:58:06;;;;;;;6.40;1.30;;;;;;;;;;5030291;28;20033;-83
2023/10/22 03:00:35;;;;;;;8.32;1.45;;;;;;;;;;5031115;28;20044;-84
2023/10/22 03:03:02;;;;;;;3.42;0.80;;;;;;;;;;5031164;28;20037;-83
2023/10/22 03:05:31;;;;;;;3.97;1.02;;;;;;;;;;5032168;28;20047;-84
2023/10/22 03:07:57;;;;;;;9.48;2.00;;;;;;;;;;5015303;28;20048;-84
2023/10/22 03:10:24;;;;;;;3.28;1.13;;;;;;;;;;5003031;28;20068;-84
2023/10/22 03:12:50;;;;;;;5.68;1.77;;;;;;;;;;4999241;28;20105;-84
2023/10/22 03:15:16;;;;;;;3.22;1.15;;;;;;;;;;5019795;28;20029;-85
2023/10/22 03:17:42;;;;;;;4.40;0.85;;;;;;;;;;4997036;28;20464;-85
2023/10/22 03:20:09;;;;;;;6.53;1.40;;;;;;;;;;4999480;28;20033;-84
2023/10/22 03:22:35;;;;;;;5.40;1.30;;;;;;;;;;5031511;28;20037;-84
2023/10/22 03:25:01;;;;;;;5.05;1.20;;;;;;;;;;5001705;28;20123;-85
2023/10/22 03:27:27;;;;;;;9.75;1.60;;;;;;;;;;4999352;28;20037;-84
2023/10/22 03:29:53;;;;;;;5.55;1.80;;;;;;;;;;5019532;28;20036;-85
2023/10/22 03:32:20;;;;;;;4.10;1.50;;;;;;;;;;5011769;28;20045;-86
2023/10/22 03:34:46;;;;;;;9.55;2.15;;;;;;;;;;5034302;28;20132;-85
2023/10/22 03:37:12;;;;;;;4.55;1.48;;;;;;;;;;5033421;28;20095;-84
2023/10/22 03:39:38;;;;;;;5.95;1.70;;;;;;;;;;5001400;28;20534;-84
2023/10/22 03:42:04;;;;;;;6.80;1.55;;;;;;;;;;5012478;28;20124;-84
2023/10/22 03:44:30;;;;;;;8.23;1.90;;;;;;;;;;5001931;28;20043;-84
2023/10/22 03:46:56;;;;;;;3.22;1.65;;;;;;;;;;5034409;28;20503;-84
2023/10/22 03:49:22;;;;;;;8.70;2.47;;;;;;;;;;5015275;28;20547;-84
2023/10/22 03:51:48;;;;;;;8.45;2.22;;;;;;;;;;5033050;28;20560;-85
2023/10/22 03:54:15;;;;;;;3.58;2.20;;;;;;;;;;5016174;28;20472;-84
2023/10/22 03:56:41;;;;;;;6.90;2.28;;;;;;;;;;5015148;28;20056;-84
2023/10/22 03:59:07;;;;;;;5.82;2.10;;;;;;;;;;5001413;28;20380;-85
2023/10/22 04:01:34;;;;;;;4.25;1.92;;;;;;;;;;5036299;28;20471;-84
2023/10/22 04:04:00;;;;;;;7.70;1.83;;;;;;;;;;5033294;28;20040;-85
2023/10/22 04:06:26;;;;;;;5.72;1.58;;;;;;;;;;5036212;28;20041;-84
2023/10/22 04:08:52;;;;;;;6.45;1.75;;;;;;;;;;5019871;28;20037;-84
2023/10/22 04:11:21;;;;;;;3.03;1.48;;;;;;;;;;5031330;28;20044;-85
2023/10/22 04:13:47;;;;;;;4.93;1.60;;;;;;;;;;5034841;28;20048;-83
2023/10/22 04:16:16;;;;;;;4.57;1.42;;;;;;;;;;4999637;28;20053;-83
2023/10/22 04:18:42;;;;;;;4.90;1.40;;;;;;;;;;4998142;28;20112;-84
2023/10/22 04:21:15;;;;;;;2.40;1.60;;;;;;;;;;5029963;28;20033;-85
2023/10/22 04:23:41;;;;;;;8.77;1.30;;;;;;;;;;5032373;28;20034;-85
2023/10/22 04:26:14;;;;;;;3.75;1.35;;;;;;;;;;5020998;28;20043;-85
2023/10/22 04:28:43;;;;;;;6.10;1.88;;;;;;;;;;5029010;28;20045;-85
2023/10/22 04:31:09;;;;;;;2.25;1.27;;;;;;;;;;5028633;28;20045;-84
2023/10/22 04:33:36;;;;;;;6.25;1.30;;;;;;;;;;4996576;28;20045;-86
2023/10/22 04:36:03;;;;;;;3.60;1.52;;;;;;;;;;5031825;28;20052;-84
2023/10/22 04:38:29;;;;;;;2.13;1.08;;;;;;;;;;5030355;28;20045;-85
2023/10/22 04:40:55;;;;;;;4.22;1.60;;;;;;;;;;5015990;28;20029;-84
2023/10/22 04:43:21;;;;;;;3.78;1.50;;;;;;;;;;5019102;28;20037;-84
2023/10/22 04:45:51;;;;;;;1.85;1.50;;;;;;;;;;5032141;28;20072;-85
2023/10/22 04:48:17;;;;;;;2.80;1.65;;;;;;;;;;5030686;28;20112;-85
2023/10/22 04:50:44;;;;;;;2.15;1.35;;;;;;;;;;5033362;28;20476;-85
2023/10/22 04:53:10;;;;;;;3.88;1.60;;;;;;;;;;5031031;28;20071;-85
2023/10/22 04:55:37;;;;;;;2.80;1.25;;;;;;;;;;5014314;28;20044;-84
2023/10/22 04:58:03;;;;;;;2.60;1.42;;;;;;;;;;5016808;28;20094;-86
2023/10/22 05:00:29;;;;;;;6.03;1.90;;;;;;;;;;5028220;28;20489;-84
2023/10/22 05:02:55;;;;;;;3.53;1.60;;;;;;;;;;5013320;28;20037;-84
2023/10/22 05:05:21;;;;;;;3.03;1.63;;;;;;;;;;5015628;28;20110;-84
2023/10/22 05:07:49;;;;;;;2.38;1.70;;;;;;;;;;5028999;28;20042;-85
2023/10/22 05:10:15;;;;;;;2.25;2.05;;;;;;;;;;5030935;28;20045;-85
2023/10/22 05:12:41;;;;;;;2.03;1.80;;;;;;;;;;5014900;28;20115;-84
2023/10/22 05:15:08;;;;;;;2.55;1.63;;;;;;;;;;5032758;28;20044;-86
2023/10/22 05:17:34;;;;;;;4.53;1.90;;;;;;;;;;5013781;28;20046;-84
2023/10/22 05:20:00;;;;;;;3.05;2.30;;;;;;;;;;5033247;28;20033;-82
2023/10/22 05:22:26;;;;;;;2.65;2.08;;;;;;;;;;5010976;28;20033;-85
2023/10/22 05:24:52;;;;;;;6.85;2.40;;;;;;;;;;5019686;28;20556;-85
2023/10/22 05:27:19;;;;;;;3.70;2.13;;;;;;;;;;5030708;28;20043;-85
2023/10/22 05:29:47;;;;;;;4.25;2.20;;;;;;;;;;5018515;28;20041;-85
2023/10/22 05:32:17;;;;;;;3.10;1.98;;;;;;;;;;5009973;28;20041;-84
2023/10/22 05:34:43;;;;;;;3.38;2.38;;;;;;;;;;5032967;28;20152;-84
2023/10/22 05:37:10;;;;;;;2.72;2.28;;;;;;;;;;5033141;28;20472;-84
2023/10/22 05:39:39;;;;;;;3.17;1.80;;;;;;;;;;5034083;28;20038;-84
2023/10/22 05:42:06;;;;;;;4.15;2.17;;;;;;;;;;5022749;28;20048;-83
2023/10/22 05:44:32;;;;;;;4.53;2.38;;;;;;;;;;5030361;28;20037;-84
2023/10/22 05:46:58;;;;;;;2.60;2.13;;;;;;;;;;5033544;28;20090;-84
2023/10/22 05:49:24;;;;;;;4.32;2.13;;;;;;;;;;4999976;28;20179;-83
2023/10/22 05:51:50;;;;;;;3.22;2.30;;;;;;;;;;5030598;28;20041;-85
2023/10/22 05:54:17;;;;;;;2.70;2.50;;;;;;;;;;4998473;28;20409;-85
2023/10/22 05:56:43;;;;;;;2.90;2.60;;;;;;;;;;4994591;28;20064;-84
2023/10/22 05:59:10;;;;;;;2.53;2.10;;;;;;;;;;5030505;28;20052;-84
2023/10/22 06:01:41;;;;;;;4.55;3.53;;;;;;;;;;5026974;28;20033;-84
2023/10/22 06:04:07;;;;;;;5.40;4.07;;;;;;;;;;5024929;28;20043;-83
2023/10/22 06:06:33;;;;;;;4.80;3.92;;;;;;;;;;5028485;28;20427;-86
2023/10/22 06:08:59;;;;;;;5.80;3.90;;;;;;;;;;5018192;28;20045;-84
2023/10/22 06:11:25;;;;;;;5.70;4.47;;;;;;;;;;5034449;28;20048;-85
2023/10/22 06:13:51;;;;;;;6.22;4.47;;;;;;;;;;5026916;28;20037;-83
2023/10/22 06:16:17;;;;;;;5.45;4.43;;;;;;;;;;5017996;28;20048;-84
2023/10/22 06:18:43;;;;;;;9.13;4.85;;;;;;;;;;5031961;28;20437;-83
2023/10/22 06:21:13;;;;;;;7.43;5.72;;;;;;;;;;4996588;28;20044;-84
2023/10/22 06:23:39;;;;;;;5.88;4.80;;;;;;;;;;5029758;28;20036;-85
2023/10/22 06:26:05;;;;;;;8.63;5.70;;;;;;;;;;5010538;28;20037;-84
2023/10/22 06:28:32;;;;;;;12.07;6.32;;;;;;;;;;5034327;28;20485;-83
2023/10/22 06:31:07;;;;;;;8.77;6.00;;;;;;;;;;5032012;28;20225;-83
2023/10/22 06:33:34;;;;;;;7.18;5.32;;;;;;;;;;5030179;28;20037;-84
2023/10/22 06:36:10;;;;;;;6.72;5.72;;;;;;;;;;5032684;28;20870;-83
2023/10/22 06:38:36;;;;;;;7.80;5.40;;;;;;;;;;5027072;28;20044;-85
2023/10/22 06:41:02;;;;;;;8.88;5.30;;;;;;;;;;5007535;28;20384;-87
2023/10/22 06:43:28;;;;;;;5.45;4.85;;;;;;;;;;5011220;28;20041;-87
2023/10/22 06:45:59;;;;;;;5.68;4.57;;;;;;;;;;5028928;28;20227;-87
2023/10/22 06:48:25;;;;;;;8.13;5.10;;;;;;;;;;5007528;28;20481;-86
2023/10/22 06:50:51;;;;;;;2.80;2.60;;;;;;;;;;5010969;28;20052;-87
2023/10/22 06:53:17;;;;;;;2.50;1.63;;;;;;;;;;4999524;28;20044;-87
2023/10/22 06:55:43;;;;;;;1.67;1.17;;;;;;;;;;5009874;28;20136;-86
2023/10/22 06:58:09;;;;;;;3.83;1.15;;;;;;;;;;5024202;28;20127;-86
2023/10/22 07:00:35;;;;;;;3.97;1.20;;;;;;;;;;4997215;28;20036;-86
2023/10/22 07:03:01;;;;;;;4.57;1.60;;;;;;;;;;5013295;28;20076;-86
2023/10/22 07:05:27;;;;;;;4.55;1.60;;;;;;;;;;4997215;28;20049;-87
2023/10/22 07:07:53;;;;;;;7.68;1.63;;;;;;;;;;5026072;28;20037;-85
2023/10/22 07:10:19;;;;;;;6.22;1.90;;;;;;;;;;5015359;28;20091;-85
2023/10/22 07:12:46;;;;;;;10.35;2.33;;;;;;;;;;5027106;28;20381;-85
2023/10/22 07:15:12;;;;;;;2.63;1.75;;;;;;;;;;5011753;28;20044;-85
2023/10/22 07:17:38;;;;;;;7.20;2.33;;;;;;;;;;5012230;28;20087;-85
2023/10/22 07:20:06;;;;;;;5.75;2.13;;;;;;;;;;5008533;28;20030;-86
2023/10/22 07:22:32;;;;;;;4.75;2.13;;;;;;;;;;5026406;28;20037;-86
2023/10/22 07:24:58;;;;;;;8.80;2.50;;;;;;;;;;5008847;28;20048;-86
2023/10/22 07:27:24;;;;;;;7.15;2.20;;;;;;;;;;4994592;28;20524;-85
2023/10/22 07:29:50;;;;;;;6.05;1.48;;;;;;;;;;5029456;28;20056;-85
2023/10/22 07:32:16;;;;;;;4.75;1.40;;;;;;;;;;5005800;28;20096;-85
2023/10/22 07:34:42;;;;;;;3.25;1.45;;;;;;;;;;4996607;28;20059;-85
2023/10/22 07:37:08;;;;;;;1.65;1.55;;;;;;;;;;5015899;28;20101;-86
2023/10/22 07:39:34;;;;;;;6.60;2.67;;;;;;;;;;4998636;28;20037;-89
2023/10/22 07:42:01;;;;;;;4.22;2.80;;;;;;;;;;5031186;28;20048;-86
2023/10/22 07:44:27;;;;;;;5.63;2.47;;;;;;;;;;5032122;28;20045;-86
2023/10/22 07:46:53;;;;;;;6.07;2.28;;;;;;;;;;5010183;28;20049;-89
2023/10/22 07:49:20;;;;;;;6.85;2.75;;;;;;;;;;5013992;28;20040;-89
2023/10/22 07:51:46;;;;;;;6.95;2.45;;;;;;;;;;5006326;28;20167;-83
2023/10/22 07:54:12;;;;;;;9.73;2.45;;;;;;;;;;5028346;28;20037;-83
2023/10/22 07:56:38;;;;;;;8.05;2.92;;;;;;;;;;5029911;28;20372;-84
2023/10/22 07:59:04;;;;;;;9.20;3.88;;;;;;;;;;5031217;28;20040;-83
2023/10/22 08:01:31;;;;;;;7.57;3.50;;;;;;;;;;5012778;28;20033;-82
2023/10/22 08:03:57;;;;;;;12.25;3.78;;;;;;;;;;5009952;28;20045;-84
2023/10/22 08:06:23;;;;;;;7.97;3.47;;;;;;;;;;5011345;28;20125;-82
2023/10/22 08:08:49;;;;;;;8.27;3.47;;;;;;;;;;5008119;28;20112;-83
2023/10/22 08:11:15;;;;;;;10.68;3.70;;;;;;;;;;5008324;28;20064;-83
2023/10/22 08:13:41;;;;;;;10.85;3.47;;;;;;;;;;5010237;28;20041;-84
2023/10/22 08:16:07;;;;;;;14.18;3.33;;;;;;;;;;5008806;28;20041;-82
2023/10/22 08:18:33;;;;;;;9.98;3.50;;;;;;;;;;5028362;28;20040;-83
2023/10/22 08:21:03;;;;;;;8.60;3.63;;;;;;;;;;5030869;28;20033;-82
2023/10/22 08:23:30;;;;;;;9.43;3.63;;;;;;;;;;5031425;28;20029;-83
2023/10/22 08:25:57;;;;;;;9.32;4.38;;;;;;;;;;5013456;28;20110;-83
2023/10/22 08:28:23;;;;;;;10.45;4.88;;;;;;;;;;5013477;28;20086;-81
2023/10/22 08:30:50;;;;;;;14.52;6.47;;;;;;;;;;5024528;28;20051;-83
2023/10/22 08:33:16;;;;;;;9.93;5.40;;;;;;;;;;4999393;28;20488;-82
2023/10/22 08:35:42;;;;;;;6.60;3.78;;;;;;;;;;5011029;28;20140;-83
2023/10/22 08:38:08;;;;;;;12.68;3.80;;;;;;;;;;5013863;28;20045;-82
2023/10/22 08:40:41;;;;;;;8.50;3.33;;;;;;;;;;5016075;28;20047;-83
2023/10/22 08:43:11;;;;;;;9.25;4.13;;;;;;;;;;5013208;28;20167;-81
2023/10/22 08:45:37;;;;;;;13.32;5.13;;;;;;;;;;5022027;28;20048;-84
2023/10/22 08:48:06;;;;;;;6.78;4.60;;;;;;;;;;5035129;28;20044;-83
2023/10/22 08:50:33;;;;;;;10.43;4.22;;;;;;;;;;5017975;28;20492;-86
2023/10/22 08:52:59;;;;;;;8.82;4.25;;;;;;;;;;5028651;28;20530;-86
2023/10/22 08:55:27;;;;;;;7.60;3.53;;;;;;;;;;5023951;28;20123;-86
2023/10/22 08:57:53;;;;;;;9.13;3.60;;;;;;;;;;5030735;28;20044;-87
2023/10/22 09:00:21;;;;;;;9.23;3.50;;;;;;;;;;5012639;28;20052;-83
2023/10/22 09:02:47;;;;;;;15.95;5.60;;;;;;;;;;5031173;28;20142;-84
2023/10/22 09:05:13;;;;;;;11.95;3.85;;;;;;;;;;5009296;28;20049;-83
2023/10/22 09:07:52;;;;;;;17.92;4.22;;;;;;;;;;5011761;28;20029;-83
2023/10/22 09:10:25;;;;;;;11.80;3.45;;;;;;;;;;4995736;28;20041;-84
2023/10/22 09:12:52;;;;;;;6.97;3.30;;;;;;;;;;5012804;28;20091;-84
2023/10/22 09:15:18;;;;;;;8.13;3.25;;;;;;;;;;5013692;28;20036;-83
2023/10/22 09:17:45;;;;;;;3.65;2.38;;;;;;;;;;4996426;28;20067;-81
2023/10/22 09:20:21;;;;;;;10.68;3.17;;;;;;;;;;5011301;28;20037;-83
2023/10/22 09:22:47;;;;;;;16.13;5.00;;;;;;;;;;5028958;28;20162;-83
2023/10/22 09:25:16;;;;;;;7.80;3.00;;;;;;;;;;5004598;28;20040;-83
2023/10/22 09:27:42;;;;;;;8.07;2.08;;;;;;;;;;5019900;28;20048;-84
2023/10/22 09:30:08;;;;;;;5.70;2.28;;;;;;;;;;5029395;28;20459;-84
2023/10/22 09:32:34;;;;;;;5.18;1.75;;;;;;;;;;4996411;28;20388;-84
2023/10/22 09:35:14;;;;;;;5.18;1.90;;;;;;;;;;5015650;28;20045;-83
2023/10/22 09:37:54;;;;;;;9.13;3.17;;;;;;;;;;5028624;28;20152;-82
2023/10/22 09:40:21;;;;;;;3.90;1.67;;;;;;;;;;5013376;28;20400;-83
2023/10/22 09:42:50;;;;;;;5.20;1.50;;;;;;;;;;5012090;28;20040;-84
2023/10/22 09:45:21;;;;;;;3.92;1.50;;;;;;;;;;5008673;28;20480;-83
2023/10/22 09:47:48;;;;;;;4.72;1.75;;;;;;;;;;5025054;28;20045;-83
2023/10/22 09:50:18;;;;;;;4.25;1.83;;;;;;;;;;5028745;28;20557;-83
2023/10/22 09:52:44;;;;;;;6.35;1.95;;;;;;;;;;5014553;28;20072;-83
2023/10/22 09:55:14;;;;;;;5.30;1.92;;;;;;;;;;5027426;28;20041;-83
2023/10/22 09:57:40;;;;;;;5.68;1.83;;;;;;;;;;5029049;28;20037;-82
2023/10/22 10:00:12;;;;;;;5.57;1.17;;;;;;;;;;5012972;28;20128;-83
2023/10/22 10:02:43;;;;;;;5.32;1.42;;;;;;;;;;5010617;28;20132;-84
2023/10/22 10:05:12;;;;;;;3.10;1.10;;;;;;;;;;5028180;28;20123;-83
2023/10/22 10:07:39;;;;;;;4.72;1.13;;;;;;;;;;5028818;28;20055;-84
2023/10/22 10:10:06;;;;;;;6.32;1.30;;;;;;;;;;5009751;28;20043;-85
2023/10/22 10:12:34;;;;;;;3.42;1.20;;;;;;;;;;5014034;28;20126;-86
2023/10/22 10:15:00;;;;;;;3.45;1.73;;;;;;;;;;5032450;28;20040;-86
2023/10/22 10:17:26;;;;;;;7.55;1.25;;;;;;;;;;5013039;28;20045;-85
2023/10/22 10:19:52;;;;;;;5.95;1.55;;;;;;;;;;5002143;28;20051;-86
2023/10/22 10:22:39;;;;;;;1.50;1.00;;;;;;;;;;5016560;28;20554;-86
2023/10/22 10:25:30;;;;;;;5.75;1.00;;;;;;;;;;5030253;28;20115;-86
2023/10/22 10:27:59;;;;;;;2.58;1.10;;;;;;;;;;5012460;28;20095;-84
2023/10/22 10:30:25;;;;;;;4.82;0.70;;;;;;;;;;5012265;28;20120;-86
2023/10/22 10:32:52;;;;;;;2.47;0.55;;;;;;;;;;5013057;28;20037;-85
2023/10/22 10:35:19;;;;;;;4.07;1.00;;;;;;;;;;5011348;28;20052;-86
2023/10/22 10:38:11;;;;;;;4.88;1.10;;;;;;;;;;5018315;28;20045;-86
2023/10/22 10:40:44;;;;;;;3.15;0.73;;;;;;;;;;5029780;28;20051;-85
2023/10/22 10:43:10;;;;;;;7.55;1.40;;;;;;;;;;5030031;28;20040;-86
2023/10/22 10:45:40;;;;;;;3.67;0.90;;;;;;;;;;5033261;28;20033;-86
2023/10/22 10:48:06;;;;;;;4.53;1.00;;;;;;;;;;5031344;28;20033;-86
2023/10/22 10:50:32;;;;;;;3.08;0.98;;;;;;;;;;4997204;28;20053;-86
2023/10/22 10:52:59;;;;;;;2.03;0.82;;;;;;;;;;5016196;28;20546;-85
2023/10/22 10:55:32;;;;;;;2.33;0.80;;;;;;;;;;5014773;28;20025;-86
2023/10/22 10:57:59;;;;;;;5.07;0.77;;;;;;;;;;5031388;28;20067;-85
2023/10/22 11:00:30;;;;;;;4.35;1.10;;;;;;;;;;5037358;28;20163;-86
2023/10/22 11:02:57;;;;;;;4.22;0.82;;;;;;;;;;5024823;28;20033;-85
2023/10/22 11:05:29;;;;;;;3.80;1.00;;;;;;;;;;5013871;28;20426;-85
2023/10/22 11:07:56;;;;;;;6.32;0.90;;;;;;;;;;5022502;28;20044;-85
2023/10/22 11:10:22;;;;;;;4.35;0.82;;;;;;;;;;5022735;28;20052;-83
2023/10/22 11:12:49;;;;;;;2.63;1.00;;;;;;;;;;5033460;28;20528;-83
2023/10/22 11:15:16;;;;;;;1.90;0.98;;;;;;;;;;5035159;28;20037;-83
2023/10/22 11:17:42;;;;;;;2.70;0.98;;;;;;;;;;5049543;28;20049;-83
2023/10/22 11:20:09;;;;;;;4.38;0.80;;;;;;;;;;5034005;28;20114;-83
2023/10/22 11:22:36;;;;;;;4.15;0.90;;;;;;;;;;5032166;28;20049;-84
2023/10/22 11:25:04;;;;;;;2.35;0.75;;;;;;;;;;5002032;28;20041;-84
2023/10/22 11:27:31;;;;;;;4.13;0.80;;;;;;;;;;5011243;28;20496;-83
2023/10/22 11:30:00;;;;;;;2.50;0.93;;;;;;;;;;4999884;28;20123;-85
2023/10/22 11:32:26;;;;;;;3.00;0.90;;;;;;;;;;5012136;28;20485;-83
2023/10/22 11:35:03;;;;;;;2.42;0.80;;;;;;;;;;5001513;28;20080;-83
2023/10/22 11:37:30;;;;;;;2.50;0.70;;;;;;;;;;5013096;28;20080;-83
2023/10/22 11:39:56;;;;;;;3.35;0.75;;;;;;;;;;5019496;28;20072;-83
2023/10/22 11:42:23;;;;;;;2.55;0.60;;;;;;;;;;5000201;28;20089;-84
2023/10/22 11:44:49;;;;;;;1.13;0.50;;;;;;;;;;5001236;28;20029;-83
2023/10/22 11:47:25;;;;;;;2.67;0.70;;;;;;;;;;5033572;28;20051;-83
2023/10/22 11:49:52;;;;;;;2.25;0.80;;;;;;;;;;5015982;28;20045;-83
2023/10/22 11:52:39;;;;;;;3.25;0.65;;;;;;;;;;5033029;28;20569;-83
2023/10/22 11:55:06;;;;;;;4.75;0.90;;;;;;;;;;5015056;28;20037;-83
2023/10/22 11:57:33;;;;;;;3.38;0.80;;;;;;;;;;5015019;28;20056;-84
2023/10/22 11:59:59;;;;;;;6.55;0.70;;;;;;;;;;5015667;28;20041;-84
2023/10/22 12:02:25;;;;;;;3.28;1.00;;;;;;;;;;5013092;28;20045;-83
2023/10/22 12:04:51;;;;;;;3.40;1.02;;;;;;;;;;5033964;28;20040;-83
2023/10/22 12:07:17;;;;;;;3.55;1.02;;;;;;;;;;5009040;28;20055;-84
2023/10/22 12:09:44;;;;;;;3.97;0.77;;;;;;;;;;5010856;28;20048;-83
2023/10/22 12:12:10;;;;;;;2.83;1.33;;;;;;;;;;4999178;28;20642;-84
2023/10/22 12:14:38;;;;;;;4.25;0.80;;;;;;;;;;4996385;28;20401;-83
2023/10/22 12:17:04;;;;;;;3.50;1.20;;;;;;;;;;5009242;28;20033;-84
2023/10/22 12:19:30;;;;;;;3.38;0.80;;;;;;;;;;4998637;28;20373;-83
2023/10/22 12:21:56;;;;;;;3.35;0.90;;;;;;;;;;5015474;28;20043;-84
2023/10/22 12:24:22;;;;;;;2.22;0.70;;;;;;;;;;5034236;28;20079;-83
2023/10/22 12:26:48;;;;;;;0.77;0.50;;;;;;;;;;5031461;28;20044;-83
2023/10/22 12:29:14;;;;;;;3.53;0.70;;;;;;;;;;4998096;28;20041;-82
2023/10/22 12:31:41;;;;;;;0.80;0.50;;;;;;;;;;5015333;28;20041;-84
2023/10/22 12:34:07;;;;;;;1.27;0.68;;;;;;;;;;5014859;28;20098;-83
2023/10/22 12:36:34;;;;;;;1.15;0.60;;;;;;;;;;5005989;28;20045;-84
2023/10/22 12:39:00;;;;;;;1.23;0.75;;;;;;;;;;5025838;28;20060;-83
2023/10/22 12:41:27;;;;;;;1.88;0.80;;;;;;;;;;5013732;28;20048;-84
2023/10/22 12:43:53;;;;;;;0.95;0.60;;;;;;;;;;5035676;28;20044;-84
2023/10/22 12:46:22;;;;;;;0.77;0.50;;;;;;;;;;5031899;28;20048;-83
2023/10/22 12:48:48;;;;;;;3.03;0.70;;;;;;;;;;5013021;28;20032;-83
2023/10/22 12:51:15;;;;;;;1.45;0.55;;;;;;;;;;5014083;28;20119;-83
2023/10/22 12:53:43;;;;;;;1.55;0.60;;;;;;;;;;5025921;28;20501;-85
2023/10/22 12:56:09;;;;;;;2.00;0.60;;;;;;;;;;4997200;28;20135;-85
2023/10/22 12:58:35;;;;;;;1.50;0.60;;;;;;;;;;5027332;28;20095;-83
2023/10/22 13:01:04;;;;;;;1.60;0.63;;;;;;;;;;4995617;28;20067;-85
2023/10/22 13:03:30;;;;;;;1.35;0.65;;;;;;;;;;5009691;28;20033;-83
2023/10/22 13:05:56;;;;;;;2.63;0.60;;;;;;;;;;5014995;28;20423;-83
2023/10/22 13:08:22;;;;;;;1.48;0.60;;;;;;;;;;5009505;28;20040;-83
2023/10/22 13:10:49;;;;;;;1.83;0.63;;;;;;;;;;5017375;28;20037;-81
2023/10/22 13:13:15;;;;;;;1.05;0.60;;;;;;;;;;5029785;28;20116;-83
2023/10/22 13:15:42;;;;;;;2.45;0.60;;;;;;;;;;5024202;28;20420;-84
2023/10/22 13:18:08;;;;;;;4.13;0.60;;;;;;;;;;5028462;28;20045;-82
2023/10/22 13:20:34;;;;;;;0.98;0.43;;;;;;;;;;5010320;28;20037;-83
2023/10/22 13:23:00;;;;;;;3.08;0.50;;;;;;;;;;5010149;28;20076;-85
2023/10/22 13:25:26;;;;;;;1.02;0.50;;;;;;;;;;5024560;28;20374;-82
2023/10/22 13:27:53;;;;;;;0.60;0.43;;;;;;;;;;5008869;28;20130;-83
2023/10/22 13:30:19;;;;;;;0.60;0.50;;;;;;;;;;5011716;28;20122;-86
2023/10/22 13:32:45;;;;;;;2.85;0.60;;;;;;;;;;5030762;28;20546;-86
2023/10/22 13:35:11;;;;;;;2.50;0.57;;;;;;;;;;5024667;28;20060;-87
2023/10/22 13:37:37;;;;;;;1.33;0.45;;;;;;;;;;5011717;28;20497;-86
2023/10/22 13:40:03;;;;;;;2.35;0.73;;;;;;;;;;5009998;28;20064;-83
2023/10/22 13:42:30;;;;;;;1.33;0.50;;;;;;;;;;5026603;28;20073;-83
2023/10/22 13:44:56;;;;;;;1.25;0.50;;;;;;;;;;5024212;28;20034;-84
2023/10/22 13:47:22;;;;;;;1.95;0.50;;;;;;;;;;5008460;28;20404;-84
2023/10/22 13:49:48;;;;;;;1.90;0.50;;;;;;;;;;5021279;28;20045;-84
2023/10/22 13:52:15;;;;;;;3.10;0.40;;;;;;;;;;4991025;28;20060;-84
2023/10/22 13:54:41;;;;;;;0.60;0.40;;;;;;;;;;5022129;28;20045;-84
2023/10/22 13:57:07;;;;;;;1.38;0.60;;;;;;;;;;5006251;28;20104;-83
2023/10/22 13:59:34;;;;;;;2.28;0.73;;;;;;;;;;5007379;28;20049;-83
2023/10/22 14:02:00;;;;;;;0.95;0.52;;;;;;;;;;5004323;28;20105;-83
2023/10/22 14:04:26;;;;;;;1.45;0.60;;;;;;;;;;4990163;28;20041;-83
2023/10/22 14:06:52;;;;;;;1.42;0.60;;;;;;;;;;5007199;28;20492;-83
2023/10/22 14:09:19;;;;;;;1.17;0.52;;;;;;;;;;5028356;28;20129;-84
2023/10/22 14:11:47;;;;;;;4.93;0.70;;;;;;;;;;5029687;28;20063;-84
2023/10/22 14:14:13;;;;;;;1.45;0.55;;;;;;;;;;5017329;28;20041;-85
2023/10/22 14:16:39;;;;;;;2.38;0.60;;;;;;;;;;5030743;28;20045;-84
2023/10/22 14:19:05;;;;;;;1.48;0.70;;;;;;;;;;5012786;28;20043;-84
2023/10/22 14:21:31;;;;;;;2.78;0.70;;;;;;;;;;4995771;28;20133;-84
2023/10/22 14:23:57;;;;;;;3.00;0.80;;;;;;;;;;5010926;28;20041;-85
2023/10/22 14:26:24;;;;;;;2.88;0.70;;;;;;;;;;5004421;28;20041;-84
2023/10/22 14:28:50;;;;;;;2.70;0.80;;;;;;;;;;5024966;28;20088;-85
2023/10/22 14:31:19;;;;;;;1.75;0.73;;;;;;;;;;4988431;28;20039;-85
2023/10/22 14:33:45;;;;;;;0.40;0.40;;;;;;;;;;5003557;28;20060;-85
2023/10/22 14:36:12;;;;;;;2.05;0.77;;;;;;;;;;5005922;28;20053;-84
2023/10/22 14:38:38;;;;;;;1.65;0.60;;;;;;;;;;5021578;28;20061;-84
2023/10/22 14:41:04;;;;;;;2.38;0.90;;;;;;;;;;5020189;28;20040;-85
2023/10/22 14:43:31;;;;;;;1.42;0.55;;;;;;;;;;5006718;28;20069;-84